Frontenac, Kansas
Current Conditions -  °F | °C
As of 2:15 AM on Friday 24 Oct 2014 (Local Time) from KPTS Reporting Station
Haze Haze  
Wind Chill: 56°   Ceiling: Unl
Heat Index: NA   Visibility: 4mi
Dew Point: 56°   Wind: 5mph
Humidity: NA   Direction: 200°SSW
Pressure: 30.11"   Gusts: NA
Location:  37.46°N, 94.69°W
Report Text: KPTS 240715Z AUTO 20004KT 4SM BR CLR 13/14 A3011 RMK AO2 T01330135
Loading
Personal Weather Stations






























Interactive Weather Map
Tropical Storm Tracking
New forecast layout! Learn more

10-Day Weather Forecast

Advertisements
Track Severe Weather on mobile